sensor_id;sensor_type;location;lat;lon;timestamp;temperature;humidity
30047;DHT22;16878;52.542;13.426;2022-12-18T00:00:59;-3.10;99.90
30047;DHT22;16878;52.542;13.426;2022-12-18T00:03:25;-3.10;99.90
30047;DHT22;16878;52.542;13.426;2022-12-18T00:05:51;-3.10;99.90
30047;DHT22;16878;52.542;13.426;2022-12-18T00:08:17;-3.10;99.90
30047;DHT22;16878;52.542;13.426;2022-12-18T00:10:43;-3.10;99.90
30047;DHT22;16878;52.542;13.426;2022-12-18T00:13:09;-3.20;99.90
30047;DHT22;16878;52.542;13.426;2022-12-18T00:15:35;-3.20;99.90
30047;DHT22;16878;52.542;13.426;2022-12-18T00:18:01;-3.20;99.90
30047;DHT22;16878;52.542;13.426;2022-12-18T00:20:26;-3.30;99.90
30047;DHT22;16878;52.542;13.426;2022-12-18T00:22:52;-3.30;99.90
30047;DHT22;16878;52.542;13.426;2022-12-18T00:25:18;-3.20;99.90
30047;DHT22;16878;52.542;13.426;2022-12-18T00:27:43;-3.20;99.90
30047;DHT22;16878;52.542;13.426;2022-12-18T00:30:09;-3.30;99.90
30047;DHT22;16878;52.542;13.426;2022-12-18T00:32:35;-3.40;99.90
30047;DHT22;16878;52.542;13.426;2022-12-18T00:35:00;-3.50;99.90
30047;DHT22;16878;52.542;13.426;2022-12-18T00:37:26;-3.50;99.90
30047;DHT22;16878;52.542;13.426;2022-12-18T00:39:51;-3.50;99.90
30047;DHT22;16878;52.542;13.426;2022-12-18T00:42:17;-3.50;99.90
30047;DHT22;16878;52.542;13.426;2022-12-18T00:45:02;-3.50;99.90
30047;DHT22;16878;52.542;13.426;2022-12-18T00:47:27;-3.50;99.90
30047;DHT22;16878;52.542;13.426;2022-12-18T00:49:53;-3.50;99.90
30047;DHT22;16878;52.542;13.426;2022-12-18T00:52:18;-3.50;99.90
30047;DHT22;16878;52.542;13.426;2022-12-18T00:54:44;-3.60;99.90
30047;DHT22;16878;52.542;13.426;2022-12-18T00:57:10;-3.60;99.90
30047;DHT22;16878;52.542;13.426;2022-12-18T00:59:35;-3.70;99.90
30047;DHT22;16878;52.542;13.426;2022-12-18T01:02:01;-3.60;99.90
30047;DHT22;16878;52.542;13.426;2022-12-18T01:04:26;-3.60;99.90
30047;DHT22;16878;52.542;13.426;2022-12-18T01:06:52;-3.60;99.90
30047;DHT22;16878;52.542;13.426;2022-12-18T01:09:18;-3.60;99.90
30047;DHT22;16878;52.542;13.426;2022-12-18T01:11:43;-3.50;99.90
30047;DHT22;16878;52.542;13.426;2022-12-18T01:14:09;-3.60;99.90
30047;DHT22;16878;52.542;13.426;2022-12-18T01:16:35;-3.70;99.90
30047;DHT22;16878;52.542;13.426;2022-12-18T01:19:00;-3.80;99.90
30047;DHT22;16878;52.542;13.426;2022-12-18T01:21:26;-3.90;99.90
30047;DHT22;16878;52.542;13.426;2022-12-18T01:23:52;-3.90;99.90
30047;DHT22;16878;52.542;13.426;2022-12-18T01:26:18;-3.90;99.90
30047;DHT22;16878;52.542;13.426;2022-12-18T01:28:44;-3.90;99.90
30047;DHT22;16878;52.542;13.426;2022-12-18T01:31:25;-3.90;99.90
30047;DHT22;16878;52.542;13.426;2022-12-18T01:33:52;-3.90;99.90
30047;DHT22;16878;52.542;13.426;2022-12-18T01:38:43;-3.90;99.90
30047;DHT22;16878;52.542;13.426;2022-12-18T01:41:09;-3.90;99.90
30047;DHT22;16878;52.542;13.426;2022-12-18T01:46:15;-3.90;99.90
30047;DHT22;16878;52.542;13.426;2022-12-18T01:48:41;-3.90;99.90
30047;DHT22;16878;52.542;13.426;2022-12-18T01:51:07;-3.80;99.90
30047;DHT22;16878;52.542;13.426;2022-12-18T01:53:34;-3.80;99.90
30047;DHT22;16878;52.542;13.426;2022-12-18T01:56:01;-3.80;99.90
30047;DHT22;16878;52.542;13.426;2022-12-18T01:58:35;-3.90;99.90
30047;DHT22;16878;52.542;13.426;2022-12-18T02:01:02;-3.90;99.90
30047;DHT22;16878;52.542;13.426;2022-12-18T02:03:27;-3.90;99.90
30047;DHT22;16878;52.542;13.426;2022-12-18T02:05:57;-4.00;99.90
30047;DHT22;16878;52.542;13.426;2022-12-18T02:08:27;-4.00;99.90
30047;DHT22;16878;52.542;13.426;2022-12-18T02:16:23;-3.90;99.90
30047;DHT22;16878;52.542;13.426;2022-12-18T02:18:50;-3.90;99.90
30047;DHT22;16878;52.542;13.426;2022-12-18T02:29:24;-3.90;99.90
30047;DHT22;16878;52.542;13.426;2022-12-18T02:31:53;-3.90;99.90
30047;DHT22;16878;52.542;13.426;2022-12-18T02:34:20;-3.90;99.90
30047;DHT22;16878;52.542;13.426;2022-12-18T02:36:46;-3.90;99.90
30047;DHT22;16878;52.542;13.426;2022-12-18T02:39:13;-3.80;99.90
30047;DHT22;16878;52.542;13.426;2022-12-18T02:41:40;-3.90;99.90
30047;DHT22;16878;52.542;13.426;2022-12-18T02:44:07;-3.90;99.90
30047;DHT22;16878;52.542;13.426;2022-12-18T02:46:37;-3.90;99.90
30047;DHT22;16878;52.542;13.426;2022-12-18T02:49:08;-3.90;99.90
30047;DHT22;16878;52.542;13.426;2022-12-18T02:57:17;-4.00;99.90
30047;DHT22;16878;52.542;13.426;2022-12-18T02:59:56;-4.00;99.90
30047;DHT22;16878;52.542;13.426;2022-12-18T03:02:29;-4.00;99.90
30047;DHT22;16878;52.542;13.426;2022-12-18T03:05:01;-4.10;99.90
30047;DHT22;16878;52.542;13.426;2022-12-18T03:10:13;-4.10;99.90
30047;DHT22;16878;52.542;13.426;2022-12-18T03:12:43;-4.10;99.90
30047;DHT22;16878;52.542;13.426;2022-12-18T03:15:20;-4.10;99.90
30047;DHT22;16878;52.542;13.426;2022-12-18T03:17:52;-4.20;99.90
30047;DHT22;16878;52.542;13.426;2022-12-18T03:20:19;-4.10;99.90
30047;DHT22;16878;52.542;13.426;2022-12-18T03:22:46;-4.10;99.90
30047;DHT22;16878;52.542;13.426;2022-12-18T03:25:13;-4.10;99.90
30047;DHT22;16878;52.542;13.426;2022-12-18T03:27:41;-4.10;99.90
30047;DHT22;16878;52.542;13.426;2022-12-18T03:30:08;-4.10;99.90
30047;DHT22;16878;52.542;13.426;2022-12-18T03:32:39;-4.10;99.90
30047;DHT22;16878;52.542;13.426;2022-12-18T03:35:06;-4.10;99.90
30047;DHT22;16878;52.542;13.426;2022-12-18T03:37:32;-4.10;99.90
30047;DHT22;16878;52.542;13.426;2022-12-18T03:39:58;-4.20;99.90
30047;DHT22;16878;52.542;13.426;2022-12-18T03:44:53;-4.20;99.90
30047;DHT22;16878;52.542;13.426;2022-12-18T03:47:24;-4.20;99.90
30047;DHT22;16878;52.542;13.426;2022-12-18T03:52:26;-4.30;99.90
30047;DHT22;16878;52.542;13.426;2022-12-18T03:54:53;-4.30;99.90
30047;DHT22;16878;52.542;13.426;2022-12-18T03:57:20;-4.40;99.90
30047;DHT22;16878;52.542;13.426;2022-12-18T03:59:47;-4.40;99.90
30047;DHT22;16878;52.542;13.426;2022-12-18T04:02:15;-4.50;99.90
30047;DHT22;16878;52.542;13.426;2022-12-18T04:04:41;-4.50;99.90
30047;DHT22;16878;52.542;13.426;2022-12-18T04:07:08;-4.50;99.90
30047;DHT22;16878;52.542;13.426;2022-12-18T04:09:34;-4.60;99.90
30047;DHT22;16878;52.542;13.426;2022-12-18T04:12:00;-4.60;99.90
30047;DHT22;16878;52.542;13.426;2022-12-18T04:14:29;-4.70;99.90
30047;DHT22;16878;52.542;13.426;2022-12-18T04:16:54;-4.70;99.90
30047;DHT22;16878;52.542;13.426;2022-12-18T04:19:20;-4.80;99.90
30047;DHT22;16878;52.542;13.426;2022-12-18T04:21:45;-4.70;99.90
30047;DHT22;16878;52.542;13.426;2022-12-18T04:24:11;-4.70;99.90
30047;DHT22;16878;52.542;13.426;2022-12-18T04:26:36;-4.60;99.90
30047;DHT22;16878;52.542;13.426;2022-12-18T04:29:02;-4.70;99.90
30047;DHT22;16878;52.542;13.426;2022-12-18T04:31:28;-4.70;99.90
30047;DHT22;16878;52.542;13.426;2022-12-18T04:33:53;-4.60;99.90
30047;DHT22;16878;52.542;13.426;2022-12-18T04:36:19;-4.60;99.90
30047;DHT22;16878;52.542;13.426;2022-12-18T04:38:44;-4.70;99.90
30047;DHT22;16878;52.542;13.426;2022-12-18T04:41:13;-4.60;99.90
30047;DHT22;16878;52.542;13.426;2022-12-18T04:43:38;-4.50;99.90
30047;DHT22;16878;52.542;13.426;2022-12-18T04:46:07;-4.50;99.90
30047;DHT22;16878;52.542;13.426;2022-12-18T04:48:33;-4.60;99.90
30047;DHT22;16878;52.542;13.426;2022-12-18T04:50:59;-4.70;99.90
30047;DHT22;16878;52.542;13.426;2022-12-18T04:53:24;-4.70;99.90
30047;DHT22;16878;52.542;13.426;2022-12-18T04:55:50;-4.80;99.90
30047;DHT22;16878;52.542;13.426;2022-12-18T04:58:15;-4.90;99.90
30047;DHT22;16878;52.542;13.426;2022-12-18T05:00:41;-4.90;99.90
30047;DHT22;16878;52.542;13.426;2022-12-18T05:03:06;-4.80;99.90
30047;DHT22;16878;52.542;13.426;2022-12-18T05:05:34;-4.80;99.90
30047;DHT22;16878;52.542;13.426;2022-12-18T05:07:59;-4.80;99.90
30047;DHT22;16878;52.542;13.426;2022-12-18T05:10:25;-4.70;99.90
30047;DHT22;16878;52.542;13.426;2022-12-18T05:12:51;-4.80;99.90
30047;DHT22;16878;52.542;13.426;2022-12-18T05:15:29;-4.80;99.90
30047;DHT22;16878;52.542;13.426;2022-12-18T05:17:55;-4.90;99.90
30047;DHT22;16878;52.542;13.426;2022-12-18T05:20:21;-4.80;99.90
30047;DHT22;16878;52.542;13.426;2022-12-18T05:22:46;-4.90;99.90
30047;DHT22;16878;52.542;13.426;2022-12-18T05:25:12;-4.80;99.90
30047;DHT22;16878;52.542;13.426;2022-12-18T05:27:37;-4.80;99.90
30047;DHT22;16878;52.542;13.426;2022-12-18T05:30:03;-4.80;99.90
30047;DHT22;16878;52.542;13.426;2022-12-18T05:32:28;-4.70;99.90
30047;DHT22;16878;52.542;13.426;2022-12-18T05:34:54;-4.70;99.90
30047;DHT22;16878;52.542;13.426;2022-12-18T05:37:23;-4.70;99.90
30047;DHT22;16878;52.542;13.426;2022-12-18T05:39:48;-4.70;99.90
30047;DHT22;16878;52.542;13.426;2022-12-18T05:42:14;-4.60;99.90
30047;DHT22;16878;52.542;13.426;2022-12-18T05:44:39;-4.60;99.90
30047;DHT22;16878;52.542;13.426;2022-12-18T05:47:05;-4.60;99.90
30047;DHT22;16878;52.542;13.426;2022-12-18T05:49:31;-4.50;99.90
30047;DHT22;16878;52.542;13.426;2022-12-18T05:51:57;-4.60;99.90
30047;DHT22;16878;52.542;13.426;2022-12-18T05:54:22;-4.60;99.90
30047;DHT22;16878;52.542;13.426;2022-12-18T05:56:48;-4.60;99.90
30047;DHT22;16878;52.542;13.426;2022-12-18T05:59:13;-4.70;99.90
30047;DHT22;16878;52.542;13.426;2022-12-18T06:01:39;-4.70;99.90
30047;DHT22;16878;52.542;13.426;2022-12-18T06:04:05;-4.70;99.90
30047;DHT22;16878;52.542;13.426;2022-12-18T06:06:30;-4.60;99.90
30047;DHT22;16878;52.542;13.426;2022-12-18T06:08:57;-4.60;99.90
30047;DHT22;16878;52.542;13.426;2022-12-18T06:11:24;-4.60;99.90
30047;DHT22;16878;52.542;13.426;2022-12-18T06:13:50;-4.60;99.90
30047;DHT22;16878;52.542;13.426;2022-12-18T06:16:15;-4.70;99.90
30047;DHT22;16878;52.542;13.426;2022-12-18T06:18:41;-4.70;99.90
30047;DHT22;16878;52.542;13.426;2022-12-18T06:21:06;-4.70;99.90
30047;DHT22;16878;52.542;13.426;2022-12-18T06:23:32;-4.70;99.90
30047;DHT22;16878;52.542;13.426;2022-12-18T06:25:57;-4.70;99.90
30047;DHT22;16878;52.542;13.426;2022-12-18T06:28:23;-4.60;99.90
30047;DHT22;16878;52.542;13.426;2022-12-18T06:30:49;-4.60;99.90
30047;DHT22;16878;52.542;13.426;2022-12-18T06:33:15;-4.60;99.90
30047;DHT22;16878;52.542;13.426;2022-12-18T06:35:41;-4.60;99.90
30047;DHT22;16878;52.542;13.426;2022-12-18T06:38:07;-4.60;99.90
30047;DHT22;16878;52.542;13.426;2022-12-18T06:40:32;-4.60;99.90
30047;DHT22;16878;52.542;13.426;2022-12-18T06:42:59;-4.60;99.90
30047;DHT22;16878;52.542;13.426;2022-12-18T06:45:24;-4.60;99.90
30047;DHT22;16878;52.542;13.426;2022-12-18T06:47:50;-4.60;99.90
30047;DHT22;16878;52.542;13.426;2022-12-18T06:50:18;-4.50;99.90
30047;DHT22;16878;52.542;13.426;2022-12-18T06:52:44;-4.50;99.90
30047;DHT22;16878;52.542;13.426;2022-12-18T06:55:09;-4.40;99.90
30047;DHT22;16878;52.542;13.426;2022-12-18T06:57:35;-4.40;99.90
30047;DHT22;16878;52.542;13.426;2022-12-18T07:00:02;-4.50;99.90
30047;DHT22;16878;52.542;13.426;2022-12-18T07:02:28;-4.50;99.90
30047;DHT22;16878;52.542;13.426;2022-12-18T07:04:53;-4.50;99.90
30047;DHT22;16878;52.542;13.426;2022-12-18T07:07:19;-4.50;99.90
30047;DHT22;16878;52.542;13.426;2022-12-18T07:09:44;-4.50;99.90
30047;DHT22;16878;52.542;13.426;2022-12-18T07:12:10;-4.70;99.90
30047;DHT22;16878;52.542;13.426;2022-12-18T07:14:35;-4.70;99.90
30047;DHT22;16878;52.542;13.426;2022-12-18T07:17:01;-4.70;99.90
30047;DHT22;16878;52.542;13.426;2022-12-18T07:19:26;-4.80;99.90
30047;DHT22;16878;52.542;13.426;2022-12-18T07:21:52;-4.80;99.90
30047;DHT22;16878;52.542;13.426;2022-12-18T07:24:21;-4.70;99.90
30047;DHT22;16878;52.542;13.426;2022-12-18T07:26:46;-4.70;99.90
30047;DHT22;16878;52.542;13.426;2022-12-18T07:29:12;-4.80;99.90
30047;DHT22;16878;52.542;13.426;2022-12-18T07:31:38;-4.80;99.90
30047;DHT22;16878;52.542;13.426;2022-12-18T07:34:03;-4.80;99.90
30047;DHT22;16878;52.542;13.426;2022-12-18T07:36:29;-4.80;99.90
30047;DHT22;16878;52.542;13.426;2022-12-18T07:38:54;-4.70;99.90
30047;DHT22;16878;52.542;13.426;2022-12-18T07:41:21;-4.70;99.90
30047;DHT22;16878;52.542;13.426;2022-12-18T07:43:47;-4.60;99.90
30047;DHT22;16878;52.542;13.426;2022-12-18T07:46:13;-4.50;99.90
30047;DHT22;16878;52.542;13.426;2022-12-18T07:48:42;-4.50;99.90
30047;DHT22;16878;52.542;13.426;2022-12-18T07:51:08;-4.50;99.90
30047;DHT22;16878;52.542;13.426;2022-12-18T07:53:34;-4.50;99.90
30047;DHT22;16878;52.542;13.426;2022-12-18T07:56:01;-4.40;99.90
30047;DHT22;16878;52.542;13.426;2022-12-18T07:58:28;-4.40;99.90
30047;DHT22;16878;52.542;13.426;2022-12-18T08:00:54;-4.40;99.90
30047;DHT22;16878;52.542;13.426;2022-12-18T08:03:27;-4.50;99.90
30047;DHT22;16878;52.542;13.426;2022-12-18T08:05:52;-4.40;99.90
30047;DHT22;16878;52.542;13.426;2022-12-18T08:08:18;-4.50;99.90
30047;DHT22;16878;52.542;13.426;2022-12-18T08:10:43;-4.50;99.90
30047;DHT22;16878;52.542;13.426;2022-12-18T08:13:09;-4.40;99.90
30047;DHT22;16878;52.542;13.426;2022-12-18T08:15:34;-4.40;99.90
30047;DHT22;16878;52.542;13.426;2022-12-18T08:18:00;-4.30;99.90
30047;DHT22;16878;52.542;13.426;2022-12-18T08:20:25;-4.30;99.90
30047;DHT22;16878;52.542;13.426;2022-12-18T08:22:51;-4.40;99.90
30047;DHT22;16878;52.542;13.426;2022-12-18T08:25:16;-4.30;99.90
30047;DHT22;16878;52.542;13.426;2022-12-18T08:27:42;-4.30;99.90
30047;DHT22;16878;52.542;13.426;2022-12-18T08:30:07;-4.30;99.90
30047;DHT22;16878;52.542;13.426;2022-12-18T08:32:33;-4.40;99.90
30047;DHT22;16878;52.542;13.426;2022-12-18T08:34:59;-4.30;99.90
30047;DHT22;16878;52.542;13.426;2022-12-18T08:37:24;-4.30;99.90
30047;DHT22;16878;52.542;13.426;2022-12-18T08:39:50;-4.20;99.90
30047;DHT22;16878;52.542;13.426;2022-12-18T08:42:15;-4.20;99.90
30047;DHT22;16878;52.542;13.426;2022-12-18T08:45:00;-4.20;99.90
30047;DHT22;16878;52.542;13.426;2022-12-18T08:47:25;-4.20;99.90
30047;DHT22;16878;52.542;13.426;2022-12-18T08:49:51;-4.20;99.90
30047;DHT22;16878;52.542;13.426;2022-12-18T08:52:17;-4.20;99.90
30047;DHT22;16878;52.542;13.426;2022-12-18T08:54:42;-4.20;99.90
30047;DHT22;16878;52.542;13.426;2022-12-18T08:57:08;-4.20;99.90
30047;DHT22;16878;52.542;13.426;2022-12-18T08:59:33;-4.10;99.90
30047;DHT22;16878;52.542;13.426;2022-12-18T09:01:59;-4.10;99.90
30047;DHT22;16878;52.542;13.426;2022-12-18T09:04:24;-4.10;99.90
30047;DHT22;16878;52.542;13.426;2022-12-18T09:06:50;-3.90;99.90
30047;DHT22;16878;52.542;13.426;2022-12-18T09:09:20;-3.90;99.90
30047;DHT22;16878;52.542;13.426;2022-12-18T09:11:45;-3.90;99.90
30047;DHT22;16878;52.542;13.426;2022-12-18T09:14:11;-3.90;99.90
30047;DHT22;16878;52.542;13.426;2022-12-18T09:16:40;-3.80;99.90
30047;DHT22;16878;52.542;13.426;2022-12-18T09:19:05;-3.70;99.90
30047;DHT22;16878;52.542;13.426;2022-12-18T09:21:34;-3.70;99.90
30047;DHT22;16878;52.542;13.426;2022-12-18T09:24:04;-3.70;99.90
30047;DHT22;16878;52.542;13.426;2022-12-18T09:26:30;-3.70;99.90
30047;DHT22;16878;52.542;13.426;2022-12-18T09:28:56;-3.60;99.90
30047;DHT22;16878;52.542;13.426;2022-12-18T09:31:26;-3.60;99.90
30047;DHT22;16878;52.542;13.426;2022-12-18T09:33:51;-3.60;99.90
30047;DHT22;16878;52.542;13.426;2022-12-18T09:36:17;-3.50;99.90
30047;DHT22;16878;52.542;13.426;2022-12-18T09:38:43;-3.60;99.90
30047;DHT22;16878;52.542;13.426;2022-12-18T09:41:17;-3.50;99.90
30047;DHT22;16878;52.542;13.426;2022-12-18T09:43:55;-3.40;99.90
30047;DHT22;16878;52.542;13.426;2022-12-18T09:46:36;-3.40;99.90
30047;DHT22;16878;52.542;13.426;2022-12-18T09:49:04;-3.40;99.90
30047;DHT22;16878;52.542;13.426;2022-12-18T09:51:36;-3.40;99.90
30047;DHT22;16878;52.542;13.426;2022-12-18T09:55:04;-3.40;99.90
30047;DHT22;16878;52.542;13.426;2022-12-18T09:56:58;-3.40;99.90
30047;DHT22;16878;52.542;13.426;2022-12-18T09:59:25;-3.40;99.90
30047;DHT22;16878;52.542;13.426;2022-12-18T10:01:51;-3.40;99.90
30047;DHT22;16878;52.542;13.426;2022-12-18T10:04:20;-3.40;99.90
30047;DHT22;16878;52.542;13.426;2022-12-18T10:06:57;-3.30;99.90
30047;DHT22;16878;52.542;13.426;2022-12-18T10:09:28;-3.30;99.90
30047;DHT22;16878;52.542;13.426;2022-12-18T10:22:01;-3.20;99.90
30047;DHT22;16878;52.542;13.426;2022-12-18T10:24:44;-3.20;99.90
30047;DHT22;16878;52.542;13.426;2022-12-18T10:27:14;-3.20;99.90
30047;DHT22;16878;52.542;13.426;2022-12-18T10:29:41;-3.20;99.90
30047;DHT22;16878;52.542;13.426;2022-12-18T10:32:07;-3.10;99.90
30047;DHT22;16878;52.542;13.426;2022-12-18T10:34:34;-3.10;99.90
30047;DHT22;16878;52.542;13.426;2022-12-18T10:37:00;-3.00;99.90
30047;DHT22;16878;52.542;13.426;2022-12-18T10:39:27;-2.90;99.90
30047;DHT22;16878;52.542;13.426;2022-12-18T10:41:57;-2.80;99.90
30047;DHT22;16878;52.542;13.426;2022-12-18T10:44:34;-2.80;99.90
30047;DHT22;16878;52.542;13.426;2022-12-18T10:47:03;-2.80;99.90
30047;DHT22;16878;52.542;13.426;2022-12-18T10:49:31;-2.80;99.90
30047;DHT22;16878;52.542;13.426;2022-12-18T10:54:31;-2.80;99.90
30047;DHT22;16878;52.542;13.426;2022-12-18T10:59:52;-2.90;99.90
30047;DHT22;16878;52.542;13.426;2022-12-18T11:02:39;-2.80;99.90
30047;DHT22;16878;52.542;13.426;2022-12-18T11:05:23;-2.90;99.90
30047;DHT22;16878;52.542;13.426;2022-12-18T11:07:52;-2.90;99.90
30047;DHT22;16878;52.542;13.426;2022-12-18T11:10:22;-2.90;99.90
30047;DHT22;16878;52.542;13.426;2022-12-18T11:12:48;-2.80;99.90
30047;DHT22;16878;52.542;13.426;2022-12-18T11:15:19;-2.80;99.90
30047;DHT22;16878;52.542;13.426;2022-12-18T11:17:47;-2.80;99.90
30047;DHT22;16878;52.542;13.426;2022-12-18T11:22:53;-2.70;99.90
30047;DHT22;16878;52.542;13.426;2022-12-18T11:25:20;-2.60;99.90
30047;DHT22;16878;52.542;13.426;2022-12-18T11:27:53;-2.60;99.90
30047;DHT22;16878;52.542;13.426;2022-12-18T11:32:46;-2.70;99.90
30047;DHT22;16878;52.542;13.426;2022-12-18T11:35:15;-2.70;99.90
30047;DHT22;16878;52.542;13.426;2022-12-18T11:37:43;-2.70;99.90
30047;DHT22;16878;52.542;13.426;2022-12-18T11:40:14;-2.60;99.90
30047;DHT22;16878;52.542;13.426;2022-12-18T11:42:52;-2.60;99.90
30047;DHT22;16878;52.542;13.426;2022-12-18T11:45:24;-2.60;99.90
30047;DHT22;16878;52.542;13.426;2022-12-18T11:47:56;-2.70;99.90
30047;DHT22;16878;52.542;13.426;2022-12-18T11:50:45;-2.70;99.90
30047;DHT22;16878;52.542;13.426;2022-12-18T11:53:11;-2.70;99.90
30047;DHT22;16878;52.542;13.426;2022-12-18T11:56:00;-2.70;99.90
30047;DHT22;16878;52.542;13.426;2022-12-18T11:58:29;-2.70;99.90
30047;DHT22;16878;52.542;13.426;2022-12-18T12:01:04;-2.70;99.90
30047;DHT22;16878;52.542;13.426;2022-12-18T12:09:20;-2.80;99.90
30047;DHT22;16878;52.542;13.426;2022-12-18T12:11:53;-2.80;99.90
30047;DHT22;16878;52.542;13.426;2022-12-18T12:24:30;-2.80;99.90
30047;DHT22;16878;52.542;13.426;2022-12-18T12:38:05;-2.70;99.90
30047;DHT22;16878;52.542;13.426;2022-12-18T12:40:33;-2.70;99.90
30047;DHT22;16878;52.542;13.426;2022-12-18T12:43:02;-2.70;99.90
30047;DHT22;16878;52.542;13.426;2022-12-18T12:48:06;-2.70;99.90
30047;DHT22;16878;52.542;13.426;2022-12-18T12:50:33;-2.80;99.90
30047;DHT22;16878;52.542;13.426;2022-12-18T12:53:05;-2.70;99.90
30047;DHT22;16878;52.542;13.426;2022-12-18T12:55:32;-2.70;99.90
30047;DHT22;16878;52.542;13.426;2022-12-18T12:58:02;-2.70;99.90
30047;DHT22;16878;52.542;13.426;2022-12-18T13:00:34;-2.70;99.90
30047;DHT22;16878;52.542;13.426;2022-12-18T13:05:49;-2.70;99.90
30047;DHT22;16878;52.542;13.426;2022-12-18T13:08:24;-2.70;99.90
30047;DHT22;16878;52.542;13.426;2022-12-18T13:10:57;-2.70;99.90
30047;DHT22;16878;52.542;13.426;2022-12-18T13:13:51;-2.70;99.90
30047;DHT22;16878;52.542;13.426;2022-12-18T13:16:20;-2.70;99.90
30047;DHT22;16878;52.542;13.426;2022-12-18T13:18:50;-2.60;99.90
30047;DHT22;16878;52.542;13.426;2022-12-18T13:21:27;-2.60;99.90
30047;DHT22;16878;52.542;13.426;2022-12-18T13:23:56;-2.50;99.90
30047;DHT22;16878;52.542;13.426;2022-12-18T13:31:14;-2.40;99.90
30047;DHT22;16878;52.542;13.426;2022-12-18T13:33:42;-2.50;99.90
30047;DHT22;16878;52.542;13.426;2022-12-18T13:36:25;-2.50;99.90
30047;DHT22;16878;52.542;13.426;2022-12-18T13:41:35;-2.60;99.90
30047;DHT22;16878;52.542;13.426;2022-12-18T13:46:42;-2.70;99.90
30047;DHT22;16878;52.542;13.426;2022-12-18T13:51:38;-2.80;99.90
30047;DHT22;16878;52.542;13.426;2022-12-18T13:56:56;-2.80;99.90
30047;DHT22;16878;52.542;13.426;2022-12-18T13:59:26;-2.70;99.90
30047;DHT22;16878;52.542;13.426;2022-12-18T14:01:54;-2.80;99.90
30047;DHT22;16878;52.542;13.426;2022-12-18T14:04:22;-2.70;99.90
30047;DHT22;16878;52.542;13.426;2022-12-18T14:06:49;-2.70;99.90
30047;DHT22;16878;52.542;13.426;2022-12-18T14:09:20;-2.80;99.90
30047;DHT22;16878;52.542;13.426;2022-12-18T14:11:47;-2.80;99.90
30047;DHT22;16878;52.542;13.426;2022-12-18T14:14:14;-2.80;99.90
30047;DHT22;16878;52.542;13.426;2022-12-18T14:16:40;-2.80;99.90
30047;DHT22;16878;52.542;13.426;2022-12-18T14:19:08;-2.80;99.90
30047;DHT22;16878;52.542;13.426;2022-12-18T14:21:35;-2.80;99.90
30047;DHT22;16878;52.542;13.426;2022-12-18T14:26:34;-2.80;99.90
30047;DHT22;16878;52.542;13.426;2022-12-18T14:29:00;-2.90;99.90
30047;DHT22;16878;52.542;13.426;2022-12-18T14:31:32;-2.90;99.90
30047;DHT22;16878;52.542;13.426;2022-12-18T14:33:58;-2.90;99.90
30047;DHT22;16878;52.542;13.426;2022-12-18T14:36:24;-2.90;99.90
30047;DHT22;16878;52.542;13.426;2022-12-18T14:38:51;-2.90;99.90
30047;DHT22;16878;52.542;13.426;2022-12-18T14:41:18;-2.90;99.90
30047;DHT22;16878;52.542;13.426;2022-12-18T14:43:45;-2.90;99.90
30047;DHT22;16878;52.542;13.426;2022-12-18T14:48:52;-3.00;99.90
30047;DHT22;16878;52.542;13.426;2022-12-18T14:51:21;-3.00;99.90
30047;DHT22;16878;52.542;13.426;2022-12-18T14:54:03;-3.00;99.90
30047;DHT22;16878;52.542;13.426;2022-12-18T14:56:36;-3.10;99.90
30047;DHT22;16878;52.542;13.426;2022-12-18T14:59:13;-3.10;99.90
30047;DHT22;16878;52.542;13.426;2022-12-18T15:01:50;-3.10;99.90
30047;DHT22;16878;52.542;13.426;2022-12-18T15:04:29;-3.10;99.90
30047;DHT22;16878;52.542;13.426;2022-12-18T15:07:02;-3.00;99.90
30047;DHT22;16878;52.542;13.426;2022-12-18T15:09:31;-3.00;99.90
30047;DHT22;16878;52.542;13.426;2022-12-18T15:11:58;-3.00;99.90
30047;DHT22;16878;52.542;13.426;2022-12-18T15:14:42;-3.00;99.90
30047;DHT22;16878;52.542;13.426;2022-12-18T15:17:16;-3.00;99.90
30047;DHT22;16878;52.542;13.426;2022-12-18T15:19:42;-3.00;99.90
30047;DHT22;16878;52.542;13.426;2022-12-18T15:22:28;-3.00;99.90
30047;DHT22;16878;52.542;13.426;2022-12-18T15:24:54;-2.90;99.90
30047;DHT22;16878;52.542;13.426;2022-12-18T15:32:26;-3.00;99.90
30047;DHT22;16878;52.542;13.426;2022-12-18T15:35:01;-3.00;99.90
30047;DHT22;16878;52.542;13.426;2022-12-18T15:37:27;-3.00;99.90
30047;DHT22;16878;52.542;13.426;2022-12-18T15:39:53;-3.00;99.90
30047;DHT22;16878;52.542;13.426;2022-12-18T15:42:18;-3.00;99.90
30047;DHT22;16878;52.542;13.426;2022-12-18T15:45:02;-3.00;99.90
30047;DHT22;16878;52.542;13.426;2022-12-18T15:47:28;-3.10;99.90
30047;DHT22;16878;52.542;13.426;2022-12-18T15:49:54;-3.10;99.90
30047;DHT22;16878;52.542;13.426;2022-12-18T15:52:22;-3.10;99.90
30047;DHT22;16878;52.542;13.426;2022-12-18T15:54:51;-3.20;99.90
30047;DHT22;16878;52.542;13.426;2022-12-18T15:57:35;-3.20;99.90
30047;DHT22;16878;52.542;13.426;2022-12-18T16:00:00;-3.20;99.90
30047;DHT22;16878;52.542;13.426;2022-12-18T16:02:26;-3.20;99.90
30047;DHT22;16878;52.542;13.426;2022-12-18T16:04:53;-3.20;99.90
30047;DHT22;16878;52.542;13.426;2022-12-18T16:07:19;-3.20;99.90
30047;DHT22;16878;52.542;13.426;2022-12-18T16:09:47;-3.20;99.90
30047;DHT22;16878;52.542;13.426;2022-12-18T16:12:17;-3.20;99.90
30047;DHT22;16878;52.542;13.426;2022-12-18T16:14:43;-3.20;99.90
30047;DHT22;16878;52.542;13.426;2022-12-18T16:17:10;-3.20;99.90
30047;DHT22;16878;52.542;13.426;2022-12-18T16:19:36;-3.20;99.90
30047;DHT22;16878;52.542;13.426;2022-12-18T16:22:04;-3.20;99.90
30047;DHT22;16878;52.542;13.426;2022-12-18T16:24:31;-3.20;99.90
30047;DHT22;16878;52.542;13.426;2022-12-18T16:26:57;-3.20;99.90
30047;DHT22;16878;52.542;13.426;2022-12-18T16:29:24;-3.20;99.90
30047;DHT22;16878;52.542;13.426;2022-12-18T16:31:52;-3.20;99.90
30047;DHT22;16878;52.542;13.426;2022-12-18T16:34:20;-3.20;99.90
30047;DHT22;16878;52.542;13.426;2022-12-18T16:36:49;-3.20;99.90
30047;DHT22;16878;52.542;13.426;2022-12-18T16:39:15;-3.20;99.90
30047;DHT22;16878;52.542;13.426;2022-12-18T16:41:41;-3.20;99.90
30047;DHT22;16878;52.542;13.426;2022-12-18T16:44:06;-3.20;99.90
30047;DHT22;16878;52.542;13.426;2022-12-18T16:46:32;-3.20;99.90
30047;DHT22;16878;52.542;13.426;2022-12-18T16:48:58;-3.20;99.90
30047;DHT22;16878;52.542;13.426;2022-12-18T16:51:24;-3.20;99.90
30047;DHT22;16878;52.542;13.426;2022-12-18T16:53:50;-3.20;99.90
30047;DHT22;16878;52.542;13.426;2022-12-18T16:56:15;-3.20;99.90
30047;DHT22;16878;52.542;13.426;2022-12-18T16:58:41;-3.30;99.90
30047;DHT22;16878;52.542;13.426;2022-12-18T17:01:10;-3.20;99.90
30047;DHT22;16878;52.542;13.426;2022-12-18T17:03:36;-3.30;99.90
30047;DHT22;16878;52.542;13.426;2022-12-18T17:06:04;-3.20;99.90
30047;DHT22;16878;52.542;13.426;2022-12-18T17:08:30;-3.30;99.90
30047;DHT22;16878;52.542;13.426;2022-12-18T17:10:56;-3.30;99.90